sensor_id;sensor_type;location;lat;lon;timestamp;pressure;altitude;pressure_sealevel;temperature;humidity
59063;BME280;44851;45.648;9.004;2023-03-04T00:01:31;99189.66;;;9.41;57.60
59063;BME280;44851;45.648;9.004;2023-03-04T00:03:56;99190.91;;;9.47;57.73
59063;BME280;44851;45.648;9.004;2023-03-04T00:06:22;99188.59;;;9.44;56.68
59063;BME280;44851;45.648;9.004;2023-03-04T00:08:47;99187.88;;;9.42;57.54
59063;BME280;44851;45.648;9.004;2023-03-04T00:11:13;99194.72;;;9.43;57.59
59063;BME280;44851;45.648;9.004;2023-03-04T00:13:38;99190.53;;;9.51;57.06
59063;BME280;44851;45.648;9.004;2023-03-04T00:16:04;99197.72;;;9.59;56.18
59063;BME280;44851;45.648;9.004;2023-03-04T00:18:29;99197.53;;;9.51;56.04
59063;BME280;44851;45.648;9.004;2023-03-04T00:20:55;99197.75;;;9.48;55.82
59063;BME280;44851;45.648;9.004;2023-03-04T00:23:20;99196.50;;;9.42;55.97
59063;BME280;44851;45.648;9.004;2023-03-04T00:25:45;99188.00;;;9.40;55.98
59063;BME280;44851;45.648;9.004;2023-03-04T00:28:11;99193.09;;;9.30;56.31
59063;BME280;44851;45.648;9.004;2023-03-04T00:30:36;99193.00;;;9.32;56.29
59063;BME280;44851;45.648;9.004;2023-03-04T00:33:02;99196.22;;;9.24;56.34
59063;BME280;44851;45.648;9.004;2023-03-04T00:35:27;99196.97;;;9.15;56.22
59063;BME280;44851;45.648;9.004;2023-03-04T00:37:53;99201.47;;;9.13;56.01
59063;BME280;44851;45.648;9.004;2023-03-04T00:40:18;99198.44;;;9.08;56.41
59063;BME280;44851;45.648;9.004;2023-03-04T00:42:43;99198.34;;;8.98;56.00
59063;BME280;44851;45.648;9.004;2023-03-04T00:45:09;99195.16;;;8.95;55.85
59063;BME280;44851;45.648;9.004;2023-03-04T00:47:35;99198.47;;;8.97;56.32
59063;BME280;44851;45.648;9.004;2023-03-04T00:50:00;99194.97;;;8.87;56.47
59063;BME280;44851;45.648;9.004;2023-03-04T00:52:26;99193.56;;;8.83;57.01
59063;BME280;44851;45.648;9.004;2023-03-04T00:54:51;99192.97;;;8.79;56.66
59063;BME280;44851;45.648;9.004;2023-03-04T00:57:17;99197.44;;;8.88;56.59
59063;BME280;44851;45.648;9.004;2023-03-04T00:59:42;99189.44;;;8.80;56.15
59063;BME280;44851;45.648;9.004;2023-03-04T01:02:09;99186.38;;;8.75;56.56
59063;BME280;44851;45.648;9.004;2023-03-04T01:04:35;99191.00;;;8.71;56.71
59063;BME280;44851;45.648;9.004;2023-03-04T01:07:01;99192.31;;;8.66;56.68
59063;BME280;44851;45.648;9.004;2023-03-04T01:09:26;99185.06;;;8.81;55.90
59063;BME280;44851;45.648;9.004;2023-03-04T01:11:52;99185.88;;;8.81;56.57
59063;BME280;44851;45.648;9.004;2023-03-04T01:14:17;99174.44;;;8.72;56.59
59063;BME280;44851;45.648;9.004;2023-03-04T01:16:43;99180.84;;;8.68;56.44
59063;BME280;44851;45.648;9.004;2023-03-04T01:19:09;99177.31;;;8.69;56.28
59063;BME280;44851;45.648;9.004;2023-03-04T01:21:34;99174.50;;;8.61;56.35
59063;BME280;44851;45.648;9.004;2023-03-04T01:23:59;99171.19;;;8.59;56.20
59063;BME280;44851;45.648;9.004;2023-03-04T01:26:25;99163.13;;;8.62;56.61
59063;BME280;44851;45.648;9.004;2023-03-04T01:28:51;99163.41;;;8.59;56.46
59063;BME280;44851;45.648;9.004;2023-03-04T01:31:16;99162.94;;;8.54;56.83
59063;BME280;44851;45.648;9.004;2023-03-04T01:33:41;99160.94;;;8.46;56.60
59063;BME280;44851;45.648;9.004;2023-03-04T01:36:07;99155.19;;;8.43;56.79
59063;BME280;44851;45.648;9.004;2023-03-04T01:38:32;99155.91;;;8.34;56.92
59063;BME280;44851;45.648;9.004;2023-03-04T01:40:58;99154.00;;;8.36;56.80
59063;BME280;44851;45.648;9.004;2023-03-04T01:43:26;99156.94;;;8.31;56.50
59063;BME280;44851;45.648;9.004;2023-03-04T01:45:53;99157.09;;;8.18;56.83
59063;BME280;44851;45.648;9.004;2023-03-04T01:48:29;99153.22;;;8.13;56.91
59063;BME280;44851;45.648;9.004;2023-03-04T01:50:55;99148.84;;;8.13;57.05
59063;BME280;44851;45.648;9.004;2023-03-04T01:53:26;99154.38;;;8.20;57.46
59063;BME280;44851;45.648;9.004;2023-03-04T01:55:54;99149.78;;;8.23;57.42
59063;BME280;44851;45.648;9.004;2023-03-04T01:58:27;99153.34;;;8.22;57.21
59063;BME280;44851;45.648;9.004;2023-03-04T02:00:53;99148.03;;;8.13;56.96
59063;BME280;44851;45.648;9.004;2023-03-04T02:03:19;99150.97;;;8.19;57.73
59063;BME280;44851;45.648;9.004;2023-03-04T02:05:46;99145.66;;;8.21;57.56
59063;BME280;44851;45.648;9.004;2023-03-04T02:08:13;99146.56;;;8.31;57.67
59063;BME280;44851;45.648;9.004;2023-03-04T02:10:41;99144.09;;;8.30;57.32
59063;BME280;44851;45.648;9.004;2023-03-04T02:13:07;99146.13;;;8.26;57.32
59063;BME280;44851;45.648;9.004;2023-03-04T02:15:32;99140.09;;;8.14;57.27
59063;BME280;44851;45.648;9.004;2023-03-04T02:17:58;99135.38;;;8.19;57.44
59063;BME280;44851;45.648;9.004;2023-03-04T02:23:40;99130.22;;;8.08;56.29
59063;BME280;44851;45.648;9.004;2023-03-04T02:28:44;99126.56;;;8.11;57.70
59063;BME280;44851;45.648;9.004;2023-03-04T02:33:46;99124.78;;;8.11;57.43
59063;BME280;44851;45.648;9.004;2023-03-04T02:36:11;99119.13;;;8.17;57.46
59063;BME280;44851;45.648;9.004;2023-03-04T02:38:37;99122.53;;;8.18;57.30
59063;BME280;44851;45.648;9.004;2023-03-04T02:41:03;99117.56;;;8.15;57.21
59063;BME280;44851;45.648;9.004;2023-03-04T02:43:29;99120.06;;;8.16;57.21
59063;BME280;44851;45.648;9.004;2023-03-04T02:45:55;99111.81;;;8.11;57.81
59063;BME280;44851;45.648;9.004;2023-03-04T02:48:21;99108.72;;;8.17;57.48
59063;BME280;44851;45.648;9.004;2023-03-04T02:50:50;99111.81;;;8.11;57.46
59063;BME280;44851;45.648;9.004;2023-03-04T02:53:17;99103.69;;;8.05;57.49
59063;BME280;44851;45.648;9.004;2023-03-04T02:55:42;99109.81;;;8.04;56.96
59063;BME280;44851;45.648;9.004;2023-03-04T02:58:09;99104.50;;;8.05;57.69
59063;BME280;44851;45.648;9.004;2023-03-04T03:00:35;99101.78;;;8.07;57.75
59063;BME280;44851;45.648;9.004;2023-03-04T03:03:00;99104.28;;;7.97;57.35
59063;BME280;44851;45.648;9.004;2023-03-04T03:05:29;99104.97;;;7.99;57.70
59063;BME280;44851;45.648;9.004;2023-03-04T03:07:55;99103.59;;;7.95;57.14
59063;BME280;44851;45.648;9.004;2023-03-04T03:10:20;99105.81;;;7.99;57.45
59063;BME280;44851;45.648;9.004;2023-03-04T03:12:47;99104.75;;;8.02;56.74
59063;BME280;44851;45.648;9.004;2023-03-04T03:15:13;99102.84;;;8.04;56.90
59063;BME280;44851;45.648;9.004;2023-03-04T03:17:38;99097.56;;;7.94;56.99
59063;BME280;44851;45.648;9.004;2023-03-04T03:20:04;99102.28;;;7.89;57.03
59063;BME280;44851;45.648;9.004;2023-03-04T03:22:30;99096.25;;;8.00;57.14
59063;BME280;44851;45.648;9.004;2023-03-04T03:24:56;99098.63;;;7.81;57.20
59063;BME280;44851;45.648;9.004;2023-03-04T03:27:21;99089.88;;;7.93;57.46
59063;BME280;44851;45.648;9.004;2023-03-04T03:29:47;99090.03;;;7.80;57.55
59063;BME280;44851;45.648;9.004;2023-03-04T03:32:12;99094.38;;;7.80;57.50
59063;BME280;44851;45.648;9.004;2023-03-04T03:34:38;99089.66;;;7.62;57.37
59063;BME280;44851;45.648;9.004;2023-03-04T03:37:03;99088.47;;;7.66;57.33
59063;BME280;44851;45.648;9.004;2023-03-04T03:39:29;99088.94;;;7.60;57.17
59063;BME280;44851;45.648;9.004;2023-03-04T03:41:54;99090.13;;;7.67;57.86
59063;BME280;44851;45.648;9.004;2023-03-04T03:44:20;99094.63;;;7.77;57.29
59063;BME280;44851;45.648;9.004;2023-03-04T03:46:45;99096.97;;;7.68;57.60
59063;BME280;44851;45.648;9.004;2023-03-04T03:49:11;99092.97;;;7.76;56.99
59063;BME280;44851;45.648;9.004;2023-03-04T03:51:37;99105.69;;;7.67;56.54
59063;BME280;44851;45.648;9.004;2023-03-04T03:54:02;99100.88;;;7.52;57.30
59063;BME280;44851;45.648;9.004;2023-03-04T03:56:28;99098.84;;;7.44;57.43
59063;BME280;44851;45.648;9.004;2023-03-04T03:58:53;99103.06;;;7.23;58.08
59063;BME280;44851;45.648;9.004;2023-03-04T04:01:19;99100.72;;;7.31;58.40
59063;BME280;44851;45.648;9.004;2023-03-04T04:03:44;99096.47;;;7.30;58.13
59063;BME280;44851;45.648;9.004;2023-03-04T04:06:10;99093.66;;;7.33;58.28
59063;BME280;44851;45.648;9.004;2023-03-04T04:08:35;99099.31;;;7.27;57.95
59063;BME280;44851;45.648;9.004;2023-03-04T04:11:01;99097.88;;;7.23;58.30
59063;BME280;44851;45.648;9.004;2023-03-04T04:13:26;99094.34;;;7.35;58.24
59063;BME280;44851;45.648;9.004;2023-03-04T04:15:52;99090.56;;;7.16;58.11
59063;BME280;44851;45.648;9.004;2023-03-04T04:18:18;99096.88;;;7.01;58.98
59063;BME280;44851;45.648;9.004;2023-03-04T04:20:45;99097.03;;;7.11;58.70
59063;BME280;44851;45.648;9.004;2023-03-04T04:23:10;99098.31;;;7.05;58.95
59063;BME280;44851;45.648;9.004;2023-03-04T04:25:36;99096.16;;;6.88;59.15
59063;BME280;44851;45.648;9.004;2023-03-04T04:28:01;99096.59;;;6.82;59.11
59063;BME280;44851;45.648;9.004;2023-03-04T04:30:27;99090.22;;;6.75;59.79
59063;BME280;44851;45.648;9.004;2023-03-04T04:32:52;99090.22;;;6.75;59.55
59063;BME280;44851;45.648;9.004;2023-03-04T04:35:18;99090.47;;;6.72;59.55
59063;BME280;44851;45.648;9.004;2023-03-04T04:37:44;99091.38;;;6.71;60.09
59063;BME280;44851;45.648;9.004;2023-03-04T04:40:10;99085.34;;;6.59;59.68
59063;BME280;44851;45.648;9.004;2023-03-04T04:42:36;99089.19;;;6.53;60.29
59063;BME280;44851;45.648;9.004;2023-03-04T04:45:01;99092.22;;;6.47;60.33
59063;BME280;44851;45.648;9.004;2023-03-04T04:47:26;99100.88;;;6.59;60.81
59063;BME280;44851;45.648;9.004;2023-03-04T04:49:52;99100.50;;;6.52;60.22
59063;BME280;44851;45.648;9.004;2023-03-04T04:52:17;99097.41;;;6.47;61.13
59063;BME280;44851;45.648;9.004;2023-03-04T04:54:43;99104.47;;;6.45;61.01
59063;BME280;44851;45.648;9.004;2023-03-04T04:57:08;99108.53;;;6.60;60.72
59063;BME280;44851;45.648;9.004;2023-03-04T04:59:34;99103.22;;;6.51;60.44
59063;BME280;44851;45.648;9.004;2023-03-04T05:01:59;99106.31;;;6.43;60.32
59063;BME280;44851;45.648;9.004;2023-03-04T05:04:25;99097.56;;;6.33;60.95
59063;BME280;44851;45.648;9.004;2023-03-04T05:06:50;99100.84;;;6.24;60.88
59063;BME280;44851;45.648;9.004;2023-03-04T05:09:15;99102.47;;;6.25;61.16
59063;BME280;44851;45.648;9.004;2023-03-04T05:11:41;99099.34;;;6.32;61.02
59063;BME280;44851;45.648;9.004;2023-03-04T05:14:06;99094.63;;;6.50;60.52
59063;BME280;44851;45.648;9.004;2023-03-04T05:16:32;99096.75;;;6.56;60.11
59063;BME280;44851;45.648;9.004;2023-03-04T05:18:57;99099.00;;;6.37;60.44
59063;BME280;44851;45.648;9.004;2023-03-04T05:21:23;99095.66;;;6.24;59.89
59063;BME280;44851;45.648;9.004;2023-03-04T05:23:48;99086.16;;;6.11;60.89
59063;BME280;44851;45.648;9.004;2023-03-04T05:26:15;99096.47;;;6.24;61.30
59063;BME280;44851;45.648;9.004;2023-03-04T05:28:41;99085.56;;;6.32;60.68
59063;BME280;44851;45.648;9.004;2023-03-04T05:31:07;99087.72;;;6.14;60.90
59063;BME280;44851;45.648;9.004;2023-03-04T05:33:33;99089.75;;;5.98;61.10
59063;BME280;44851;45.648;9.004;2023-03-04T05:35:59;99089.47;;;6.13;60.87
59063;BME280;44851;45.648;9.004;2023-03-04T05:38:24;99094.16;;;6.08;60.85
59063;BME280;44851;45.648;9.004;2023-03-04T05:40:55;99099.41;;;6.07;60.52
59063;BME280;44851;45.648;9.004;2023-03-04T05:43:21;99093.34;;;6.08;61.24
59063;BME280;44851;45.648;9.004;2023-03-04T05:45:48;99098.84;;;6.03;61.32
59063;BME280;44851;45.648;9.004;2023-03-04T05:48:14;99096.56;;;5.99;61.33
59063;BME280;44851;45.648;9.004;2023-03-04T05:50:40;99107.72;;;5.99;61.77
59063;BME280;44851;45.648;9.004;2023-03-04T05:53:05;99096.38;;;5.89;61.49
59063;BME280;44851;45.648;9.004;2023-03-04T05:55:31;99103.78;;;5.81;61.49
59063;BME280;44851;45.648;9.004;2023-03-04T05:57:57;99105.66;;;5.79;61.27
59063;BME280;44851;45.648;9.004;2023-03-04T06:00:23;99106.00;;;5.74;61.85
59063;BME280;44851;45.648;9.004;2023-03-04T06:02:49;99102.59;;;5.86;61.45
59063;BME280;44851;45.648;9.004;2023-03-04T06:05:15;99101.84;;;5.84;61.24
59063;BME280;44851;45.648;9.004;2023-03-04T06:07:42;99108.97;;;5.81;60.93
59063;BME280;44851;45.648;9.004;2023-03-04T06:10:09;99112.81;;;5.75;61.08
59063;BME280;44851;45.648;9.004;2023-03-04T06:12:35;99108.97;;;5.81;61.38
59063;BME280;44851;45.648;9.004;2023-03-04T06:15:01;99114.34;;;6.03;60.79
59063;BME280;44851;45.648;9.004;2023-03-04T06:17:30;99111.03;;;6.01;60.33
59063;BME280;44851;45.648;9.004;2023-03-04T06:19:56;99122.75;;;5.81;60.52
59063;BME280;44851;45.648;9.004;2023-03-04T06:22:21;99119.75;;;5.75;61.52
59063;BME280;44851;45.648;9.004;2023-03-04T06:24:47;99123.06;;;5.77;61.19
59063;BME280;44851;45.648;9.004;2023-03-04T06:27:12;99122.94;;;5.91;61.26
59063;BME280;44851;45.648;9.004;2023-03-04T06:29:38;99126.03;;;5.96;61.32
59063;BME280;44851;45.648;9.004;2023-03-04T06:32:04;99132.38;;;5.92;60.79
59063;BME280;44851;45.648;9.004;2023-03-04T06:34:29;99122.81;;;6.05;61.10
59063;BME280;44851;45.648;9.004;2023-03-04T06:36:55;99133.13;;;6.18;60.40
59063;BME280;44851;45.648;9.004;2023-03-04T06:39:20;99134.19;;;6.15;60.97
59063;BME280;44851;45.648;9.004;2023-03-04T06:41:46;99129.19;;;6.25;60.72
59063;BME280;44851;45.648;9.004;2023-03-04T06:44:11;99131.78;;;6.25;60.86
59063;BME280;44851;45.648;9.004;2023-03-04T06:46:37;99134.19;;;6.15;61.10
59063;BME280;44851;45.648;9.004;2023-03-04T06:49:03;99136.63;;;6.30;61.37
59063;BME280;44851;45.648;9.004;2023-03-04T06:51:28;99134.75;;;6.32;61.01
59063;BME280;44851;45.648;9.004;2023-03-04T06:53:54;99136.16;;;6.12;60.67
59063;BME280;44851;45.648;9.004;2023-03-04T06:56:20;99142.25;;;6.24;61.29
59063;BME280;44851;45.648;9.004;2023-03-04T06:58:46;99135.25;;;6.37;61.33
59063;BME280;44851;45.648;9.004;2023-03-04T07:01:17;99133.00;;;6.56;61.07
59063;BME280;44851;45.648;9.004;2023-03-04T07:03:43;99135.41;;;6.71;60.97
59063;BME280;44851;45.648;9.004;2023-03-04T07:06:14;99144.63;;;6.75;60.71
59063;BME280;44851;45.648;9.004;2023-03-04T07:08:40;99140.41;;;6.85;60.56
59063;BME280;44851;45.648;9.004;2023-03-04T07:11:06;99148.69;;;6.90;60.75
59063;BME280;44851;45.648;9.004;2023-03-04T07:13:32;99145.19;;;7.02;61.23
59063;BME280;44851;45.648;9.004;2023-03-04T07:15:59;99142.41;;;7.16;60.82
59063;BME280;44851;45.648;9.004;2023-03-04T07:18:25;99146.31;;;7.33;59.82
59063;BME280;44851;45.648;9.004;2023-03-04T07:20:52;99149.53;;;7.37;60.08
59063;BME280;44851;45.648;9.004;2023-03-04T07:23:18;99148.72;;;7.59;60.59
59063;BME280;44851;45.648;9.004;2023-03-04T07:25:44;99150.25;;;7.72;58.79
59063;BME280;44851;45.648;9.004;2023-03-04T07:28:10;99154.28;;;7.88;58.58
59063;BME280;44851;45.648;9.004;2023-03-04T07:30:35;99149.81;;;8.12;58.89
59063;BME280;44851;45.648;9.004;2023-03-04T07:33:01;99155.44;;;8.29;58.42
59063;BME280;44851;45.648;9.004;2023-03-04T07:35:26;99161.78;;;8.36;57.46
59063;BME280;44851;45.648;9.004;2023-03-04T07:37:51;99154.38;;;8.42;57.24
59063;BME280;44851;45.648;9.004;2023-03-04T07:40:17;99156.47;;;8.48;57.02
59063;BME280;44851;45.648;9.004;2023-03-04T07:42:47;99160.13;;;8.46;57.99
59063;BME280;44851;45.648;9.004;2023-03-04T07:45:13;99166.22;;;8.56;57.42
59063;BME280;44851;45.648;9.004;2023-03-04T07:47:38;99163.50;;;8.58;57.54
59063;BME280;44851;45.648;9.004;2023-03-04T07:50:05;99159.44;;;8.44;57.17
59063;BME280;44851;45.648;9.004;2023-03-04T07:52:31;99161.53;;;8.50;57.83
59063;BME280;44851;45.648;9.004;2023-03-04T07:54:56;99157.16;;;8.50;57.52
59063;BME280;44851;45.648;9.004;2023-03-04T07:57:22;99154.06;;;8.57;59.33
59063;BME280;44851;45.648;9.004;2023-03-04T07:59:48;99156.25;;;8.72;58.11
59063;BME280;44851;45.648;9.004;2023-03-04T08:02:14;99154.38;;;8.74;57.65
59063;BME280;44851;45.648;9.004;2023-03-04T08:04:40;99155.56;;;9.02;57.95
59063;BME280;44851;45.648;9.004;2023-03-04T08:07:05;99158.75;;;9.06;58.13
59063;BME280;44851;45.648;9.004;2023-03-04T08:09:31;99160.91;;;9.22;58.26
59063;BME280;44851;45.648;9.004;2023-03-04T08:11:56;99157.72;;;9.60;56.95
59063;BME280;44851;45.648;9.004;2023-03-04T08:14:22;99151.72;;;9.69;56.37
59063;BME280;44851;45.648;9.004;2023-03-04T08:16:47;99153.41;;;9.80;55.23
59063;BME280;44851;45.648;9.004;2023-03-04T08:19:12;99151.09;;;10.17;55.38
59063;BME280;44851;45.648;9.004;2023-03-04T08:21:38;99144.88;;;10.68;55.00
59063;BME280;44851;45.648;9.004;2023-03-04T08:24:04;99144.88;;;11.07;56.29
59063;BME280;44851;45.648;9.004;2023-03-04T08:26:38;99144.38;;;10.94;52.19
59063;BME280;44851;45.648;9.004;2023-03-04T08:29:07;99147.50;;;11.07;51.79
59063;BME280;44851;45.648;9.004;2023-03-04T08:31:33;99148.38;;;11.54;54.03
59063;BME280;44851;45.648;9.004;2023-03-04T08:33:59;99145.06;;;11.62;52.69
59063;BME280;44851;45.648;9.004;2023-03-04T08:36:24;99142.88;;;11.95;53.05
59063;BME280;44851;45.648;9.004;2023-03-04T08:38:50;99141.16;;;12.13;51.41
59063;BME280;44851;45.648;9.004;2023-03-04T08:41:15;99142.63;;;12.43;52.53
59063;BME280;44851;45.648;9.004;2023-03-04T08:43:41;99139.97;;;12.53;51.14
59063;BME280;44851;45.648;9.004;2023-03-04T08:46:06;99142.34;;;12.82;50.44
59063;BME280;44851;45.648;9.004;2023-03-04T08:48:32;99145.03;;;12.72;50.25
59063;BME280;44851;45.648;9.004;2023-03-04T08:50:58;99132.88;;;12.81;49.51
59063;BME280;44851;45.648;9.004;2023-03-04T08:53:24;99140.25;;;12.85;48.50
59063;BME280;44851;45.648;9.004;2023-03-04T08:55:50;99136.06;;;12.57;47.98
59063;BME280;44851;45.648;9.004;2023-03-04T08:58:17;99130.81;;;12.57;50.49
59063;BME280;44851;45.648;9.004;2023-03-04T09:00:47;99134.22;;;12.85;50.63
59063;BME280;44851;45.648;9.004;2023-03-04T09:03:14;99137.81;;;13.10;48.18
59063;BME280;44851;45.648;9.004;2023-03-04T09:05:40;99131.28;;;13.06;48.18
59063;BME280;44851;45.648;9.004;2023-03-04T09:08:06;99130.38;;;13.15;47.55
59063;BME280;44851;45.648;9.004;2023-03-04T09:10:32;99130.22;;;12.99;46.95
59063;BME280;44851;45.648;9.004;2023-03-04T09:12:57;99129.31;;;13.08;46.80
59063;BME280;44851;45.648;9.004;2023-03-04T09:15:23;99124.31;;;12.96;46.89
59063;BME280;44851;45.648;9.004;2023-03-04T09:17:48;99131.34;;;13.14;48.61
59063;BME280;44851;45.648;9.004;2023-03-04T09:20:14;99124.84;;;13.70;50.47
59063;BME280;44851;45.648;9.004;2023-03-04T09:22:40;99125.91;;;13.93;49.36
59063;BME280;44851;45.648;9.004;2023-03-04T09:25:06;99121.53;;;14.02;47.78
59063;BME280;44851;45.648;9.004;2023-03-04T09:27:32;99125.84;;;13.77;47.23
59063;BME280;44851;45.648;9.004;2023-03-04T09:29:58;99111.22;;;14.09;47.14
59063;BME280;44851;45.648;9.004;2023-03-04T09:32:23;99117.63;;;14.14;45.51
59063;BME280;44851;45.648;9.004;2023-03-04T09:34:49;99104.88;;;14.19;45.90
59063;BME280;44851;45.648;9.004;2023-03-04T09:37:14;99110.00;;;14.29;46.16
59063;BME280;44851;45.648;9.004;2023-03-04T09:39:40;99106.13;;;14.58;44.72
59063;BME280;44851;45.648;9.004;2023-03-04T09:42:07;99112.03;;;14.84;45.43
59063;BME280;44851;45.648;9.004;2023-03-04T09:44:39;99104.50;;;14.81;44.10
59063;BME280;44851;45.648;9.004;2023-03-04T09:47:11;99109.41;;;15.00;46.64
59063;BME280;44851;45.648;9.004;2023-03-04T09:49:39;99107.28;;;14.96;43.77
59063;BME280;44851;45.648;9.004;2023-03-04T09:52:28;99103.34;;;14.84;42.51
59063;BME280;44851;45.648;9.004;2023-03-04T09:58:45;99108.25;;;15.19;43.66
59063;BME280;44851;45.648;9.004;2023-03-04T10:00:53;99108.06;;;15.13;41.33
59063;BME280;44851;45.648;9.004;2023-03-04T10:03:23;99094.97;;;15.04;42.33
59063;BME280;44851;45.648;9.004;2023-03-04T10:06:05;99091.69;;;15.35;43.46
59063;BME280;44851;45.648;9.004;2023-03-04T10:09:01;99093.31;;;15.36;42.46
59063;BME280;44851;45.648;9.004;2023-03-04T10:11:36;99089.59;;;15.70;43.33
59063;BME280;44851;45.648;9.004;2023-03-04T10:17:02;99083.00;;;15.74;41.24
59063;BME280;44851;45.648;9.004;2023-03-04T10:22:29;99075.25;;;15.80;41.72
59063;BME280;44851;45.648;9.004;2023-03-04T10:24:57;99078.63;;;15.97;41.43
59063;BME280;44851;45.648;9.004;2023-03-04T10:27:23;99068.56;;;15.78;40.94
59063;BME280;44851;45.648;9.004;2023-03-04T10:29:49;99072.00;;;16.09;41.18
59063;BME280;44851;45.648;9.004;2023-03-04T10:32:17;99068.25;;;16.58;43.32
59063;BME280;44851;45.648;9.004;2023-03-04T10:34:44;99067.31;;;16.51;40.17
59063;BME280;44851;45.648;9.004;2023-03-04T10:37:09;99063.09;;;16.19;39.77
59063;BME280;44851;45.648;9.004;2023-03-04T10:39:41;99063.75;;;16.13;39.50
59063;BME280;44851;45.648;9.004;2023-03-04T10:45:02;99055.53;;;16.47;40.42
59063;BME280;44851;45.648;9.004;2023-03-04T10:47:28;99054.00;;;16.52;40.75
59063;BME280;44851;45.648;9.004;2023-03-04T10:52:34;99048.84;;;16.36;38.45
59063;BME280;44851;45.648;9.004;2023-03-04T10:57:43;99044.97;;;16.70;38.76
59063;BME280;44851;45.648;9.004;2023-03-04T11:00:28;99038.84;;;16.54;38.57
59063;BME280;44851;45.648;9.004;2023-03-04T11:03:34;99041.00;;;16.28;38.58
59063;BME280;44851;45.648;9.004;2023-03-04T11:06:19;99039.22;;;16.66;38.98
59063;BME280;44851;45.648;9.004;2023-03-04T11:08:54;99038.31;;;16.97;39.42
59063;BME280;44851;45.648;9.004;2023-03-04T11:11:22;99026.41;;;16.86;37.96
59063;BME280;44851;45.648;9.004;2023-03-04T11:13:54;99025.81;;;17.13;39.43
59063;BME280;44851;45.648;9.004;2023-03-04T11:16:30;99028.38;;;17.22;38.75
59063;BME280;44851;45.648;9.004;2023-03-04T11:19:13;99025.28;;;17.33;39.39
59063;BME280;44851;45.648;9.004;2023-03-04T11:21:40;99021.19;;;17.45;38.67
59063;BME280;44851;45.648;9.004;2023-03-04T11:24:17;99013.19;;;17.38;38.41
59063;BME280;44851;45.648;9.004;2023-03-04T11:26:48;99009.41;;;17.26;38.04
59063;BME280;44851;45.648;9.004;2023-03-04T11:32:27;99005.03;;;17.33;38.42
59063;BME280;44851;45.648;9.004;2023-03-04T11:34:58;98997.38;;;17.53;36.90
59063;BME280;44851;45.648;9.004;2023-03-04T11:43:00;98977.00;;;17.98;37.99
59063;BME280;44851;45.648;9.004;2023-03-04T11:45:59;98974.75;;;17.44;37.04
59063;BME280;44851;45.648;9.004;2023-03-04T11:48:48;98967.47;;;17.46;36.74
59063;BME280;44851;45.648;9.004;2023-03-04T11:51:32;98967.47;;;17.46;36.64
59063;BME280;44851;45.648;9.004;2023-03-04T11:56:54;98955.13;;;17.83;38.11
59063;BME280;44851;45.648;9.004;2023-03-04T11:59:59;98957.66;;;17.91;37.98
59063;BME280;44851;45.648;9.004;2023-03-04T12:02:50;98949.47;;;17.64;36.14
59063;BME280;44851;45.648;9.004;2023-03-04T12:11:02;98929.75;;;17.82;35.94
59063;BME280;44851;45.648;9.004;2023-03-04T12:13:47;98929.25;;;17.72;36.57
59063;BME280;44851;45.648;9.004;2023-03-04T12:19:31;98913.44;;;17.72;35.39
59063;BME280;44851;45.648;9.004;2023-03-04T12:33:11;98885.44;;;17.71;34.57
59063;BME280;44851;45.648;9.004;2023-03-04T12:38:59;98880.84;;;17.79;36.98
59063;BME280;44851;45.648;9.004;2023-03-04T12:41:53;98869.63;;;17.71;35.48
59063;BME280;44851;45.648;9.004;2023-03-04T12:44:20;98871.25;;;17.72;35.90
59063;BME280;44851;45.648;9.004;2023-03-04T12:55:11;98852.66;;;18.23;34.34
59063;BME280;44851;45.648;9.004;2023-03-04T12:57:39;98853.19;;;17.90;35.75
59063;BME280;44851;45.648;9.004;2023-03-04T13:02:59;98849.09;;;17.87;35.72
59063;BME280;44851;45.648;9.004;2023-03-04T13:05:47;98850.91;;;17.44;35.27
59063;BME280;44851;45.648;9.004;2023-03-04T13:14:07;98836.91;;;17.07;36.10
59063;BME280;44851;45.648;9.004;2023-03-04T13:19:45;98835.59;;;17.33;36.75
59063;BME280;44851;45.648;9.004;2023-03-04T13:22:34;98836.34;;;17.27;36.21
59063;BME280;44851;45.648;9.004;2023-03-04T13:43:51;98812.81;;;17.25;36.03
59063;BME280;44851;45.648;9.004;2023-03-04T13:53:52;98805.25;;;17.37;36.27
59063;BME280;44851;45.648;9.004;2023-03-04T13:56:46;98802.97;;;17.12;37.00
59063;BME280;44851;45.648;9.004;2023-03-04T14:02:11;98795.22;;;16.75;37.53
59063;BME280;44851;45.648;9.004;2023-03-04T14:04:44;98795.31;;;16.67;36.73
59063;BME280;44851;45.648;9.004;2023-03-04T14:07:31;98791.56;;;16.76;37.73
59063;BME280;44851;45.648;9.004;2023-03-04T14:12:54;98790.16;;;17.09;36.93
59063;BME280;44851;45.648;9.004;2023-03-04T14:15:25;98784.47;;;16.91;37.30
59063;BME280;44851;45.648;9.004;2023-03-04T14:17:54;98775.63;;;16.63;37.34
59063;BME280;44851;45.648;9.004;2023-03-04T14:22:55;98770.13;;;16.28;37.20
59063;BME280;44851;45.648;9.004;2023-03-04T14:30:33;98763.47;;;16.61;37.13
59063;BME280;44851;45.648;9.004;2023-03-04T14:32:59;98763.31;;;16.48;37.71
59063;BME280;44851;45.648;9.004;2023-03-04T14:35:27;98761.28;;;16.50;37.32
59063;BME280;44851;45.648;9.004;2023-03-04T14:38:13;98755.88;;;16.37;37.59
59063;BME280;44851;45.648;9.004;2023-03-04T14:40:47;98759.31;;;16.23;37.19
59063;BME280;44851;45.648;9.004;2023-03-04T14:43:19;98752.06;;;16.25;37.95
59063;BME280;44851;45.648;9.004;2023-03-04T14:45:48;98755.84;;;16.07;38.04
59063;BME280;44851;45.648;9.004;2023-03-04T14:48:20;98755.84;;;16.07;37.51
59063;BME280;44851;45.648;9.004;2023-03-04T14:50:48;98747.88;;;16.16;38.25
59063;BME280;44851;45.648;9.004;2023-03-04T14:53:19;98747.88;;;16.01;38.18
59063;BME280;44851;45.648;9.004;2023-03-04T14:58:25;98734.06;;;15.84;38.11
59063;BME280;44851;45.648;9.004;2023-03-04T15:03:39;98732.78;;;15.80;38.29
59063;BME280;44851;45.648;9.004;2023-03-04T15:06:16;98740.34;;;15.83;38.73
59063;BME280;44851;45.648;9.004;2023-03-04T15:08:43;98737.91;;;15.59;38.68
59063;BME280;44851;45.648;9.004;2023-03-04T15:11:21;98728.25;;;15.74;38.49
59063;BME280;44851;45.648;9.004;2023-03-04T15:13:50;98724.00;;;15.73;38.53
59063;BME280;44851;45.648;9.004;2023-03-04T15:16:18;98718.56;;;15.74;39.34
59063;BME280;44851;45.648;9.004;2023-03-04T15:21:40;98722.72;;;15.31;38.63